KGSO/GSO METAR and TAF weather

Enter ICAO airport designator
Station Type Date Time Source
KGSO METAR 2019/10/15 21:54 UTC NOAA

KGSO 152154Z 18005KT 10SM FEW080 OVC250 21/08 A3004 RMK AO2 SLP169 T02110083


Station Type Date Time Source
KGSO Decoded METAR 2019/10/15 21:54 UTC NOAA

PIEDMONT TRIAD INTERNATIONAL AIRPORT , NC, United States (KGSO) 36-06N 079-57W 275M
Oct 15, 2019 - 05:54 PM EDT / 2019.10.15 2154 UTC
Wind: from the S (180 degrees) at 6 MPH (5 KT):0
Visibility: 10 mile(s):0
Sky conditions: overcast
Temperature: 70.0 F (21.1 C)
Dew Point: 46.9 F (8.3 C)
Relative Humidity: 43%
Pressure (altimeter): 30.04 in. Hg (1017 hPa)
ob: KGSO 152154Z 18005KT 10SM FEW080 OVC250 21/08 A3004 RMK AO2 SLP169 T02110083
cycle: 22

Station Type Date Time Source
KGSO TAF 2019/10/15 18:22 UTC NOAA

TAF KGSO 151720Z 1518/1618 11002KT P6SM FEW250
FM152000 15005KT P6SM BKN250
FM161000 18002KT P6SM -SHRA OVC015
FM161500 20006KT 4SM RA BR SCT004 OVC009
FM161730 30008G16KT P6SM FEW025 BKN250

Example: see airport list